sensor_id;sensor_type;location;lat;lon;timestamp;temperature;humidity
15900;DHT22;8048;50.644;6.184;2024-03-22T00:00:34;9.60;99.90
15900;DHT22;8048;50.644;6.184;2024-03-22T00:02:59;9.70;99.90
15900;DHT22;8048;50.644;6.184;2024-03-22T00:05:25;9.70;99.90
15900;DHT22;8048;50.644;6.184;2024-03-22T00:07:50;9.70;99.90
15900;DHT22;8048;50.644;6.184;2024-03-22T00:10:16;9.70;99.90
15900;DHT22;8048;50.644;6.184;2024-03-22T00:12:41;9.70;99.90
15900;DHT22;8048;50.644;6.184;2024-03-22T00:15:07;9.70;99.90
15900;DHT22;8048;50.644;6.184;2024-03-22T00:17:33;9.70;99.90
15900;DHT22;8048;50.644;6.184;2024-03-22T00:19:59;9.60;99.90
15900;DHT22;8048;50.644;6.184;2024-03-22T00:22:25;9.60;99.90
15900;DHT22;8048;50.644;6.184;2024-03-22T00:24:50;9.70;99.90
15900;DHT22;8048;50.644;6.184;2024-03-22T00:27:16;9.60;99.90
15900;DHT22;8048;50.644;6.184;2024-03-22T00:29:42;9.60;99.90
15900;DHT22;8048;50.644;6.184;2024-03-22T00:32:07;9.60;99.90
15900;DHT22;8048;50.644;6.184;2024-03-22T00:34:34;9.60;99.90
15900;DHT22;8048;50.644;6.184;2024-03-22T00:37:00;9.60;99.90
15900;DHT22;8048;50.644;6.184;2024-03-22T00:39:25;9.60;99.90
15900;DHT22;8048;50.644;6.184;2024-03-22T00:41:51;9.60;99.90
15900;DHT22;8048;50.644;6.184;2024-03-22T00:44:16;9.60;99.90
15900;DHT22;8048;50.644;6.184;2024-03-22T00:46:42;9.60;99.90
15900;DHT22;8048;50.644;6.184;2024-03-22T00:49:07;9.60;99.90
15900;DHT22;8048;50.644;6.184;2024-03-22T00:51:33;9.60;99.90
15900;DHT22;8048;50.644;6.184;2024-03-22T00:53:58;9.70;99.90
15900;DHT22;8048;50.644;6.184;2024-03-22T00:56:24;9.70;99.90
15900;DHT22;8048;50.644;6.184;2024-03-22T00:58:50;9.70;99.90
15900;DHT22;8048;50.644;6.184;2024-03-22T01:01:15;9.70;99.90
15900;DHT22;8048;50.644;6.184;2024-03-22T01:03:41;9.70;99.90
15900;DHT22;8048;50.644;6.184;2024-03-22T01:06:06;9.70;99.90
15900;DHT22;8048;50.644;6.184;2024-03-22T01:08:32;9.70;99.90
15900;DHT22;8048;50.644;6.184;2024-03-22T01:10:58;9.70;99.90
15900;DHT22;8048;50.644;6.184;2024-03-22T01:13:23;9.70;99.90
15900;DHT22;8048;50.644;6.184;2024-03-22T01:15:49;9.70;99.90
15900;DHT22;8048;50.644;6.184;2024-03-22T01:18:15;9.70;99.90
15900;DHT22;8048;50.644;6.184;2024-03-22T01:20:40;9.70;99.90
15900;DHT22;8048;50.644;6.184;2024-03-22T01:23:07;9.70;99.90
15900;DHT22;8048;50.644;6.184;2024-03-22T01:25:33;9.80;99.90
15900;DHT22;8048;50.644;6.184;2024-03-22T01:27:58;9.80;99.90
15900;DHT22;8048;50.644;6.184;2024-03-22T01:30:24;9.90;99.90
15900;DHT22;8048;50.644;6.184;2024-03-22T01:32:54;9.90;99.90
15900;DHT22;8048;50.644;6.184;2024-03-22T01:35:20;9.90;99.90
15900;DHT22;8048;50.644;6.184;2024-03-22T01:37:45;9.90;99.90
15900;DHT22;8048;50.644;6.184;2024-03-22T01:40:11;10.00;99.90
15900;DHT22;8048;50.644;6.184;2024-03-22T01:42:38;10.00;99.90
15900;DHT22;8048;50.644;6.184;2024-03-22T01:45:04;10.00;99.90
15900;DHT22;8048;50.644;6.184;2024-03-22T01:47:29;10.10;99.90
15900;DHT22;8048;50.644;6.184;2024-03-22T01:49:55;10.20;99.90
15900;DHT22;8048;50.644;6.184;2024-03-22T01:52:21;10.20;99.90
15900;DHT22;8048;50.644;6.184;2024-03-22T01:54:47;10.20;99.90
15900;DHT22;8048;50.644;6.184;2024-03-22T01:57:13;10.20;99.90
15900;DHT22;8048;50.644;6.184;2024-03-22T01:59:39;10.20;99.90
15900;DHT22;8048;50.644;6.184;2024-03-22T02:02:05;10.20;99.90
15900;DHT22;8048;50.644;6.184;2024-03-22T02:04:31;10.30;99.90
15900;DHT22;8048;50.644;6.184;2024-03-22T02:06:57;10.30;99.90
15900;DHT22;8048;50.644;6.184;2024-03-22T02:09:22;10.40;99.90
15900;DHT22;8048;50.644;6.184;2024-03-22T02:11:48;10.40;99.90
15900;DHT22;8048;50.644;6.184;2024-03-22T02:14:14;10.40;99.90
15900;DHT22;8048;50.644;6.184;2024-03-22T02:16:40;10.40;99.90
15900;DHT22;8048;50.644;6.184;2024-03-22T02:19:07;10.40;99.90
15900;DHT22;8048;50.644;6.184;2024-03-22T02:21:33;10.40;99.90
15900;DHT22;8048;50.644;6.184;2024-03-22T02:23:58;10.50;99.90
15900;DHT22;8048;50.644;6.184;2024-03-22T02:26:24;10.50;99.90
15900;DHT22;8048;50.644;6.184;2024-03-22T02:28:49;10.50;99.90
15900;DHT22;8048;50.644;6.184;2024-03-22T02:31:15;10.50;99.90
15900;DHT22;8048;50.644;6.184;2024-03-22T02:33:40;10.50;99.90
15900;DHT22;8048;50.644;6.184;2024-03-22T02:36:06;10.50;99.90
15900;DHT22;8048;50.644;6.184;2024-03-22T02:38:32;10.50;99.90
15900;DHT22;8048;50.644;6.184;2024-03-22T02:40:58;10.50;99.90
15900;DHT22;8048;50.644;6.184;2024-03-22T02:43:24;10.60;99.90
15900;DHT22;8048;50.644;6.184;2024-03-22T02:45:49;10.60;99.90
15900;DHT22;8048;50.644;6.184;2024-03-22T02:48:15;10.50;99.90
15900;DHT22;8048;50.644;6.184;2024-03-22T02:50:41;10.50;99.90
15900;DHT22;8048;50.644;6.184;2024-03-22T02:53:07;10.60;99.90
15900;DHT22;8048;50.644;6.184;2024-03-22T02:55:40;10.60;99.90
15900;DHT22;8048;50.644;6.184;2024-03-22T02:58:09;10.60;99.90
15900;DHT22;8048;50.644;6.184;2024-03-22T03:00:38;10.60;99.90
15900;DHT22;8048;50.644;6.184;2024-03-22T03:03:05;10.50;99.90
15900;DHT22;8048;50.644;6.184;2024-03-22T03:05:30;10.60;99.90
15900;DHT22;8048;50.644;6.184;2024-03-22T03:07:56;10.60;99.90
15900;DHT22;8048;50.644;6.184;2024-03-22T03:10:22;10.60;99.90
15900;DHT22;8048;50.644;6.184;2024-03-22T03:12:47;10.60;99.90
15900;DHT22;8048;50.644;6.184;2024-03-22T03:15:13;10.60;99.90
15900;DHT22;8048;50.644;6.184;2024-03-22T03:17:38;10.60;99.90
15900;DHT22;8048;50.644;6.184;2024-03-22T03:20:05;10.70;99.90
15900;DHT22;8048;50.644;6.184;2024-03-22T03:22:36;10.60;99.90
15900;DHT22;8048;50.644;6.184;2024-03-22T03:25:03;10.70;99.90
15900;DHT22;8048;50.644;6.184;2024-03-22T03:27:29;10.60;99.90
15900;DHT22;8048;50.644;6.184;2024-03-22T03:29:55;10.60;99.90
15900;DHT22;8048;50.644;6.184;2024-03-22T03:32:20;10.60;99.90
15900;DHT22;8048;50.644;6.184;2024-03-22T03:34:46;10.60;99.90
15900;DHT22;8048;50.644;6.184;2024-03-22T03:37:11;10.70;99.90
15900;DHT22;8048;50.644;6.184;2024-03-22T03:39:37;10.80;99.90
15900;DHT22;8048;50.644;6.184;2024-03-22T03:42:02;10.70;99.90
15900;DHT22;8048;50.644;6.184;2024-03-22T03:44:28;10.70;99.90
15900;DHT22;8048;50.644;6.184;2024-03-22T03:46:53;10.70;99.90
15900;DHT22;8048;50.644;6.184;2024-03-22T03:49:19;10.80;99.90
15900;DHT22;8048;50.644;6.184;2024-03-22T03:51:45;10.70;99.90
15900;DHT22;8048;50.644;6.184;2024-03-22T03:54:10;10.80;99.90
15900;DHT22;8048;50.644;6.184;2024-03-22T03:56:36;10.70;99.90
15900;DHT22;8048;50.644;6.184;2024-03-22T03:59:01;10.70;99.90
15900;DHT22;8048;50.644;6.184;2024-03-22T04:01:27;10.70;99.90
15900;DHT22;8048;50.644;6.184;2024-03-22T04:03:53;10.70;99.90
15900;DHT22;8048;50.644;6.184;2024-03-22T04:06:18;10.80;99.90
15900;DHT22;8048;50.644;6.184;2024-03-22T04:08:44;10.70;99.90
15900;DHT22;8048;50.644;6.184;2024-03-22T04:11:09;10.70;99.90
15900;DHT22;8048;50.644;6.184;2024-03-22T04:13:35;10.70;99.90
15900;DHT22;8048;50.644;6.184;2024-03-22T04:16:01;10.70;99.90
15900;DHT22;8048;50.644;6.184;2024-03-22T04:18:26;10.80;99.90
15900;DHT22;8048;50.644;6.184;2024-03-22T04:20:56;10.70;99.90
15900;DHT22;8048;50.644;6.184;2024-03-22T04:23:22;10.70;99.90
15900;DHT22;8048;50.644;6.184;2024-03-22T04:25:55;10.70;99.90
15900;DHT22;8048;50.644;6.184;2024-03-22T04:28:22;10.70;99.90
15900;DHT22;8048;50.644;6.184;2024-03-22T04:31:02;10.70;99.90
15900;DHT22;8048;50.644;6.184;2024-03-22T04:33:29;10.70;99.90
15900;DHT22;8048;50.644;6.184;2024-03-22T04:35:55;10.70;99.90
15900;DHT22;8048;50.644;6.184;2024-03-22T04:38:21;10.70;99.90
15900;DHT22;8048;50.644;6.184;2024-03-22T04:40:47;10.60;99.90
15900;DHT22;8048;50.644;6.184;2024-03-22T04:43:14;10.60;99.90
15900;DHT22;8048;50.644;6.184;2024-03-22T04:45:44;10.70;99.90
15900;DHT22;8048;50.644;6.184;2024-03-22T04:48:13;10.70;99.90
15900;DHT22;8048;50.644;6.184;2024-03-22T04:50:38;10.70;99.90
15900;DHT22;8048;50.644;6.184;2024-03-22T04:53:04;10.70;99.90
15900;DHT22;8048;50.644;6.184;2024-03-22T04:55:31;10.60;99.90
15900;DHT22;8048;50.644;6.184;2024-03-22T04:57:56;10.70;99.90
15900;DHT22;8048;50.644;6.184;2024-03-22T05:00:22;10.70;99.90
15900;DHT22;8048;50.644;6.184;2024-03-22T05:02:47;10.70;99.90
15900;DHT22;8048;50.644;6.184;2024-03-22T05:05:13;10.70;99.90
15900;DHT22;8048;50.644;6.184;2024-03-22T05:07:39;10.70;99.90
15900;DHT22;8048;50.644;6.184;2024-03-22T05:10:04;10.60;99.90
15900;DHT22;8048;50.644;6.184;2024-03-22T05:12:30;10.50;99.90
15900;DHT22;8048;50.644;6.184;2024-03-22T05:14:56;10.50;99.90
15900;DHT22;8048;50.644;6.184;2024-03-22T05:17:22;10.50;99.90
15900;DHT22;8048;50.644;6.184;2024-03-22T05:19:47;10.50;99.90
15900;DHT22;8048;50.644;6.184;2024-03-22T05:22:13;10.60;99.90
15900;DHT22;8048;50.644;6.184;2024-03-22T05:24:39;10.50;99.90
15900;DHT22;8048;50.644;6.184;2024-03-22T05:27:04;10.50;99.90
15900;DHT22;8048;50.644;6.184;2024-03-22T05:29:30;10.60;99.90
15900;DHT22;8048;50.644;6.184;2024-03-22T05:31:55;10.50;99.90
15900;DHT22;8048;50.644;6.184;2024-03-22T05:34:22;10.50;99.90
15900;DHT22;8048;50.644;6.184;2024-03-22T05:36:48;10.50;99.90
15900;DHT22;8048;50.644;6.184;2024-03-22T05:39:14;10.50;99.90
15900;DHT22;8048;50.644;6.184;2024-03-22T05:41:40;10.50;99.90
15900;DHT22;8048;50.644;6.184;2024-03-22T05:44:06;10.50;99.90
15900;DHT22;8048;50.644;6.184;2024-03-22T05:46:31;10.40;99.90
15900;DHT22;8048;50.644;6.184;2024-03-22T05:48:58;10.50;99.90
15900;DHT22;8048;50.644;6.184;2024-03-22T05:51:26;10.40;99.90
15900;DHT22;8048;50.644;6.184;2024-03-22T05:53:52;10.50;99.90
15900;DHT22;8048;50.644;6.184;2024-03-22T05:56:18;10.50;99.90
15900;DHT22;8048;50.644;6.184;2024-03-22T05:58:44;10.50;99.90
15900;DHT22;8048;50.644;6.184;2024-03-22T06:01:09;10.50;99.90
15900;DHT22;8048;50.644;6.184;2024-03-22T06:03:35;10.50;99.90
15900;DHT22;8048;50.644;6.184;2024-03-22T06:06:01;10.40;99.90
15900;DHT22;8048;50.644;6.184;2024-03-22T06:08:27;10.40;99.90
15900;DHT22;8048;50.644;6.184;2024-03-22T06:10:54;10.40;99.90
15900;DHT22;8048;50.644;6.184;2024-03-22T06:13:20;10.50;99.90
15900;DHT22;8048;50.644;6.184;2024-03-22T06:15:48;10.40;99.90
15900;DHT22;8048;50.644;6.184;2024-03-22T06:18:14;10.40;99.90
15900;DHT22;8048;50.644;6.184;2024-03-22T06:20:39;10.40;99.90
15900;DHT22;8048;50.644;6.184;2024-03-22T06:23:05;10.40;99.90
15900;DHT22;8048;50.644;6.184;2024-03-22T06:25:30;10.40;99.90
15900;DHT22;8048;50.644;6.184;2024-03-22T06:27:56;10.50;99.90
15900;DHT22;8048;50.644;6.184;2024-03-22T06:30:22;10.50;99.90
15900;DHT22;8048;50.644;6.184;2024-03-22T06:32:47;10.50;99.90
15900;DHT22;8048;50.644;6.184;2024-03-22T06:35:13;10.60;99.90
15900;DHT22;8048;50.644;6.184;2024-03-22T06:37:40;10.60;99.90
15900;DHT22;8048;50.644;6.184;2024-03-22T06:40:09;10.60;99.90
15900;DHT22;8048;50.644;6.184;2024-03-22T06:42:35;10.70;99.90
15900;DHT22;8048;50.644;6.184;2024-03-22T06:45:01;10.60;99.90
15900;DHT22;8048;50.644;6.184;2024-03-22T06:47:27;10.70;99.90
15900;DHT22;8048;50.644;6.184;2024-03-22T06:49:53;10.70;99.90
15900;DHT22;8048;50.644;6.184;2024-03-22T06:52:18;10.80;99.90
15900;DHT22;8048;50.644;6.184;2024-03-22T06:54:45;10.80;99.90
15900;DHT22;8048;50.644;6.184;2024-03-22T06:57:11;10.80;99.90
15900;DHT22;8048;50.644;6.184;2024-03-22T06:59:36;10.90;99.90
15900;DHT22;8048;50.644;6.184;2024-03-22T07:02:02;10.90;99.90
15900;DHT22;8048;50.644;6.184;2024-03-22T07:04:27;11.00;99.90
15900;DHT22;8048;50.644;6.184;2024-03-22T07:06:53;11.00;99.90
15900;DHT22;8048;50.644;6.184;2024-03-22T07:09:19;11.10;99.90
15900;DHT22;8048;50.644;6.184;2024-03-22T07:11:44;11.10;99.90
15900;DHT22;8048;50.644;6.184;2024-03-22T07:14:10;11.10;99.90
15900;DHT22;8048;50.644;6.184;2024-03-22T07:16:35;11.20;99.90
15900;DHT22;8048;50.644;6.184;2024-03-22T07:19:02;11.20;99.90
15900;DHT22;8048;50.644;6.184;2024-03-22T07:21:29;11.30;99.90
15900;DHT22;8048;50.644;6.184;2024-03-22T07:23:54;11.30;99.90
15900;DHT22;8048;50.644;6.184;2024-03-22T07:26:20;11.30;99.90
15900;DHT22;8048;50.644;6.184;2024-03-22T07:28:46;11.30;99.90
15900;DHT22;8048;50.644;6.184;2024-03-22T07:31:11;11.30;99.90
15900;DHT22;8048;50.644;6.184;2024-03-22T07:33:37;11.30;99.90
15900;DHT22;8048;50.644;6.184;2024-03-22T07:36:04;11.30;99.90
15900;DHT22;8048;50.644;6.184;2024-03-22T07:38:30;11.30;99.90
15900;DHT22;8048;50.644;6.184;2024-03-22T07:40:56;11.40;99.90
15900;DHT22;8048;50.644;6.184;2024-03-22T07:43:21;11.40;99.90
15900;DHT22;8048;50.644;6.184;2024-03-22T07:45:47;11.40;99.90
15900;DHT22;8048;50.644;6.184;2024-03-22T07:48:12;11.40;99.90
15900;DHT22;8048;50.644;6.184;2024-03-22T07:50:38;11.40;99.90
15900;DHT22;8048;50.644;6.184;2024-03-22T07:53:04;11.50;99.90
15900;DHT22;8048;50.644;6.184;2024-03-22T07:55:29;11.50;99.90
15900;DHT22;8048;50.644;6.184;2024-03-22T07:57:55;11.60;99.90
15900;DHT22;8048;50.644;6.184;2024-03-22T08:00:21;11.60;99.90
15900;DHT22;8048;50.644;6.184;2024-03-22T08:02:47;11.70;99.90
15900;DHT22;8048;50.644;6.184;2024-03-22T08:05:12;11.70;99.90
15900;DHT22;8048;50.644;6.184;2024-03-22T08:07:38;11.70;99.90
15900;DHT22;8048;50.644;6.184;2024-03-22T08:10:04;11.80;99.90
15900;DHT22;8048;50.644;6.184;2024-03-22T08:12:30;11.80;99.90
15900;DHT22;8048;50.644;6.184;2024-03-22T08:14:55;11.80;99.90
15900;DHT22;8048;50.644;6.184;2024-03-22T08:17:21;11.90;99.90
15900;DHT22;8048;50.644;6.184;2024-03-22T08:19:47;11.90;99.90
15900;DHT22;8048;50.644;6.184;2024-03-22T08:22:12;11.90;99.90
15900;DHT22;8048;50.644;6.184;2024-03-22T08:24:39;12.00;99.90
15900;DHT22;8048;50.644;6.184;2024-03-22T08:27:05;12.00;99.90
15900;DHT22;8048;50.644;6.184;2024-03-22T08:29:31;12.00;99.90
15900;DHT22;8048;50.644;6.184;2024-03-22T08:31:56;12.00;99.90
15900;DHT22;8048;50.644;6.184;2024-03-22T08:34:22;12.00;99.90
15900;DHT22;8048;50.644;6.184;2024-03-22T08:36:48;12.00;99.90
15900;DHT22;8048;50.644;6.184;2024-03-22T08:39:13;12.00;99.90
15900;DHT22;8048;50.644;6.184;2024-03-22T08:41:40;12.00;99.90
15900;DHT22;8048;50.644;6.184;2024-03-22T08:44:06;12.10;99.90
15900;DHT22;8048;50.644;6.184;2024-03-22T08:46:32;12.10;99.90
15900;DHT22;8048;50.644;6.184;2024-03-22T08:48:58;12.10;99.90
15900;DHT22;8048;50.644;6.184;2024-03-22T08:51:23;12.10;99.90
15900;DHT22;8048;50.644;6.184;2024-03-22T08:53:50;12.10;99.90
15900;DHT22;8048;50.644;6.184;2024-03-22T08:56:15;12.10;99.90
15900;DHT22;8048;50.644;6.184;2024-03-22T08:58:41;12.20;99.90
15900;DHT22;8048;50.644;6.184;2024-03-22T09:01:07;12.20;99.90
15900;DHT22;8048;50.644;6.184;2024-03-22T09:03:35;12.20;99.90
15900;DHT22;8048;50.644;6.184;2024-03-22T09:06:01;12.20;99.90
15900;DHT22;8048;50.644;6.184;2024-03-22T09:08:26;12.30;99.90
15900;DHT22;8048;50.644;6.184;2024-03-22T09:10:54;12.30;99.90
15900;DHT22;8048;50.644;6.184;2024-03-22T09:13:20;12.30;99.90
15900;DHT22;8048;50.644;6.184;2024-03-22T09:15:45;12.40;99.90
15900;DHT22;8048;50.644;6.184;2024-03-22T09:18:11;12.40;99.90
15900;DHT22;8048;50.644;6.184;2024-03-22T09:20:37;12.40;99.90
15900;DHT22;8048;50.644;6.184;2024-03-22T09:23:02;12.50;99.90
15900;DHT22;8048;50.644;6.184;2024-03-22T09:25:29;12.50;99.90
15900;DHT22;8048;50.644;6.184;2024-03-22T09:27:54;12.60;99.90
15900;DHT22;8048;50.644;6.184;2024-03-22T09:30:20;12.70;99.90
15900;DHT22;8048;50.644;6.184;2024-03-22T09:32:47;12.70;99.90
15900;DHT22;8048;50.644;6.184;2024-03-22T09:35:12;12.80;99.90
15900;DHT22;8048;50.644;6.184;2024-03-22T09:37:40;12.80;99.90
15900;DHT22;8048;50.644;6.184;2024-03-22T09:40:06;12.70;99.90
15900;DHT22;8048;50.644;6.184;2024-03-22T09:42:33;12.70;99.90
15900;DHT22;8048;50.644;6.184;2024-03-22T09:45:00;12.70;99.90
15900;DHT22;8048;50.644;6.184;2024-03-22T09:47:27;12.70;99.90
15900;DHT22;8048;50.644;6.184;2024-03-22T09:49:53;12.70;99.90
15900;DHT22;8048;50.644;6.184;2024-03-22T09:52:20;12.70;99.90
15900;DHT22;8048;50.644;6.184;2024-03-22T09:54:47;12.80;99.90
15900;DHT22;8048;50.644;6.184;2024-03-22T09:57:16;12.80;99.90
15900;DHT22;8048;50.644;6.184;2024-03-22T09:59:42;12.90;99.50
15900;DHT22;8048;50.644;6.184;2024-03-22T10:02:11;12.90;99.90
15900;DHT22;8048;50.644;6.184;2024-03-22T10:04:38;12.90;99.90
15900;DHT22;8048;50.644;6.184;2024-03-22T10:07:03;13.00;99.80
15900;DHT22;8048;50.644;6.184;2024-03-22T10:09:29;13.00;99.20
15900;DHT22;8048;50.644;6.184;2024-03-22T10:11:56;13.10;99.00
15900;DHT22;8048;50.644;6.184;2024-03-22T10:14:22;13.10;99.30
15900;DHT22;8048;50.644;6.184;2024-03-22T10:16:53;13.20;99.00
15900;DHT22;8048;50.644;6.184;2024-03-22T10:19:22;13.30;98.80
15900;DHT22;8048;50.644;6.184;2024-03-22T10:22:01;13.30;98.20
15900;DHT22;8048;50.644;6.184;2024-03-22T10:24:27;13.30;98.30
15900;DHT22;8048;50.644;6.184;2024-03-22T10:26:53;13.30;98.20
15900;DHT22;8048;50.644;6.184;2024-03-22T10:29:18;13.30;98.40
15900;DHT22;8048;50.644;6.184;2024-03-22T10:31:45;13.30;98.00
15900;DHT22;8048;50.644;6.184;2024-03-22T10:34:13;13.30;98.10
15900;DHT22;8048;50.644;6.184;2024-03-22T10:36:39;13.40;98.40
15900;DHT22;8048;50.644;6.184;2024-03-22T10:39:05;13.40;98.40
15900;DHT22;8048;50.644;6.184;2024-03-22T10:41:32;13.50;98.90
15900;DHT22;8048;50.644;6.184;2024-03-22T10:43:57;13.60;98.00
15900;DHT22;8048;50.644;6.184;2024-03-22T10:46:29;13.60;98.30
15900;DHT22;8048;50.644;6.184;2024-03-22T10:48:55;13.70;98.30
15900;DHT22;8048;50.644;6.184;2024-03-22T10:51:23;13.80;98.10
15900;DHT22;8048;50.644;6.184;2024-03-22T10:53:52;13.70;97.70
15900;DHT22;8048;50.644;6.184;2024-03-22T10:56:21;13.60;98.20
15900;DHT22;8048;50.644;6.184;2024-03-22T10:58:47;13.60;98.50
15900;DHT22;8048;50.644;6.184;2024-03-22T11:01:24;13.70;98.50
15900;DHT22;8048;50.644;6.184;2024-03-22T11:03:50;13.60;98.00
15900;DHT22;8048;50.644;6.184;2024-03-22T11:06:20;13.70;98.40
15900;DHT22;8048;50.644;6.184;2024-03-22T11:08:50;13.70;98.30
15900;DHT22;8048;50.644;6.184;2024-03-22T11:11:18;13.70;98.40
15900;DHT22;8048;50.644;6.184;2024-03-22T11:13:47;13.70;98.60
15900;DHT22;8048;50.644;6.184;2024-03-22T11:16:16;13.70;98.60
15900;DHT22;8048;50.644;6.184;2024-03-22T11:18:42;13.80;98.60
15900;DHT22;8048;50.644;6.184;2024-03-22T11:21:08;13.90;98.60
15900;DHT22;8048;50.644;6.184;2024-03-22T11:23:35;13.90;98.60
15900;DHT22;8048;50.644;6.184;2024-03-22T11:26:02;13.80;98.50
15900;DHT22;8048;50.644;6.184;2024-03-22T11:28:28;13.90;98.60
15900;DHT22;8048;50.644;6.184;2024-03-22T11:30:53;14.00;98.60
15900;DHT22;8048;50.644;6.184;2024-03-22T11:33:19;14.00;98.70
15900;DHT22;8048;50.644;6.184;2024-03-22T11:35:44;13.90;97.80
15900;DHT22;8048;50.644;6.184;2024-03-22T11:38:10;13.90;98.00
15900;DHT22;8048;50.644;6.184;2024-03-22T11:40:36;13.90;98.00
15900;DHT22;8048;50.644;6.184;2024-03-22T11:43:02;13.90;97.70
15900;DHT22;8048;50.644;6.184;2024-03-22T11:45:28;13.80;97.80
15900;DHT22;8048;50.644;6.184;2024-03-22T11:47:54;13.80;97.60
15900;DHT22;8048;50.644;6.184;2024-03-22T11:50:19;13.70;97.40
15900;DHT22;8048;50.644;6.184;2024-03-22T11:52:45;13.50;96.90
15900;DHT22;8048;50.644;6.184;2024-03-22T11:55:14;13.40;97.00
15900;DHT22;8048;50.644;6.184;2024-03-22T11:57:40;13.40;97.90
15900;DHT22;8048;50.644;6.184;2024-03-22T12:00:06;13.40;98.10
15900;DHT22;8048;50.644;6.184;2024-03-22T12:02:35;13.40;98.10
15900;DHT22;8048;50.644;6.184;2024-03-22T12:05:01;13.40;98.60
15900;DHT22;8048;50.644;6.184;2024-03-22T12:07:28;13.50;98.10
15900;DHT22;8048;50.644;6.184;2024-03-22T12:09:54;13.50;97.70
15900;DHT22;8048;50.644;6.184;2024-03-22T12:12:21;13.60;97.50
15900;DHT22;8048;50.644;6.184;2024-03-22T12:14:47;13.60;96.40
15900;DHT22;8048;50.644;6.184;2024-03-22T12:17:13;13.50;97.20
15900;DHT22;8048;50.644;6.184;2024-03-22T12:19:38;13.80;97.60
15900;DHT22;8048;50.644;6.184;2024-03-22T12:22:04;14.20;96.80
15900;DHT22;8048;50.644;6.184;2024-03-22T12:24:31;14.90;96.40
15900;DHT22;8048;50.644;6.184;2024-03-22T12:26:57;15.20;94.60
15900;DHT22;8048;50.644;6.184;2024-03-22T12:29:23;15.50;94.20
15900;DHT22;8048;50.644;6.184;2024-03-22T12:31:49;15.80;93.90
15900;DHT22;8048;50.644;6.184;2024-03-22T12:34:15;16.20;91.80
15900;DHT22;8048;50.644;6.184;2024-03-22T12:36:40;16.60;92.90
15900;DHT22;8048;50.644;6.184;2024-03-22T12:39:06;17.20;91.80
15900;DHT22;8048;50.644;6.184;2024-03-22T12:41:32;17.70;88.50
15900;DHT22;8048;50.644;6.184;2024-03-22T12:43:59;17.80;87.60
15900;DHT22;8048;50.644;6.184;2024-03-22T12:46:25;17.80;88.60
15900;DHT22;8048;50.644;6.184;2024-03-22T12:48:51;18.10;84.10
15900;DHT22;8048;50.644;6.184;2024-03-22T12:51:16;18.40;78.40
15900;DHT22;8048;50.644;6.184;2024-03-22T12:53:42;18.60;78.10
15900;DHT22;8048;50.644;6.184;2024-03-22T12:56:08;18.80;77.50
15900;DHT22;8048;50.644;6.184;2024-03-22T12:58:34;18.90;79.80
15900;DHT22;8048;50.644;6.184;2024-03-22T13:01:00;18.80;75.80
15900;DHT22;8048;50.644;6.184;2024-03-22T13:03:27;18.50;72.20
15900;DHT22;8048;50.644;6.184;2024-03-22T13:05:52;18.80;78.40
15900;DHT22;8048;50.644;6.184;2024-03-22T13:08:18;19.10;79.90
15900;DHT22;8048;50.644;6.184;2024-03-22T13:10:45;19.00;76.10
15900;DHT22;8048;50.644;6.184;2024-03-22T13:13:11;18.80;78.70
15900;DHT22;8048;50.644;6.184;2024-03-22T13:15:36;19.00;74.10
15900;DHT22;8048;50.644;6.184;2024-03-22T13:18:03;19.40;76.70
15900;DHT22;8048;50.644;6.184;2024-03-22T13:20:29;19.60;74.20
15900;DHT22;8048;50.644;6.184;2024-03-22T13:22:55;20.10;75.40
15900;DHT22;8048;50.644;6.184;2024-03-22T13:25:21;20.50;78.10
15900;DHT22;8048;50.644;6.184;2024-03-22T13:27:46;20.70;72.00
15900;DHT22;8048;50.644;6.184;2024-03-22T13:30:12;20.30;67.80
15900;DHT22;8048;50.644;6.184;2024-03-22T13:32:39;20.00;63.90
15900;DHT22;8048;50.644;6.184;2024-03-22T13:35:06;19.80;63.10
15900;DHT22;8048;50.644;6.184;2024-03-22T13:37:32;19.80;70.60
15900;DHT22;8048;50.644;6.184;2024-03-22T13:39:58;19.70;64.50
15900;DHT22;8048;50.644;6.184;2024-03-22T13:42:25;19.40;66.50
15900;DHT22;8048;50.644;6.184;2024-03-22T13:44:51;19.20;63.10
15900;DHT22;8048;50.644;6.184;2024-03-22T13:47:16;18.80;60.40
15900;DHT22;8048;50.644;6.184;2024-03-22T13:49:43;18.50;59.30
15900;DHT22;8048;50.644;6.184;2024-03-22T13:52:09;18.30;58.40
15900;DHT22;8048;50.644;6.184;2024-03-22T13:54:35;18.40;59.20
15900;DHT22;8048;50.644;6.184;2024-03-22T13:57:01;18.50;61.20
15900;DHT22;8048;50.644;6.184;2024-03-22T13:59:29;18.70;62.00
15900;DHT22;8048;50.644;6.184;2024-03-22T14:01:56;18.70;61.50
15900;DHT22;8048;50.644;6.184;2024-03-22T14:04:25;18.90;65.60
15900;DHT22;8048;50.644;6.184;2024-03-22T14:06:54;18.80;65.40
15900;DHT22;8048;50.644;6.184;2024-03-22T14:09:20;19.00;63.40
15900;DHT22;8048;50.644;6.184;2024-03-22T14:11:45;18.90;59.00
15900;DHT22;8048;50.644;6.184;2024-03-22T14:14:14;18.50;59.20
15900;DHT22;8048;50.644;6.184;2024-03-22T14:16:40;18.30;59.20
15900;DHT22;8048;50.644;6.184;2024-03-22T14:19:07;18.20;57.60
15900;DHT22;8048;50.644;6.184;2024-03-22T14:21:32;18.10;56.20
15900;DHT22;8048;50.644;6.184;2024-03-22T14:23:58;18.00;56.80
15900;DHT22;8048;50.644;6.184;2024-03-22T14:26:23;18.00;57.80
15900;DHT22;8048;50.644;6.184;2024-03-22T14:28:49;18.20;58.30
15900;DHT22;8048;50.644;6.184;2024-03-22T14:31:15;18.40;58.80
15900;DHT22;8048;50.644;6.184;2024-03-22T14:33:41;18.40;59.70
15900;DHT22;8048;50.644;6.184;2024-03-22T14:36:08;18.30;57.70
15900;DHT22;8048;50.644;6.184;2024-03-22T14:38:35;18.10;58.70
15900;DHT22;8048;50.644;6.184;2024-03-22T14:41:01;17.70;55.40
15900;DHT22;8048;50.644;6.184;2024-03-22T14:43:28;17.60;60.10
15900;DHT22;8048;50.644;6.184;2024-03-22T14:45:54;17.60;61.00
15900;DHT22;8048;50.644;6.184;2024-03-22T14:48:20;17.80;61.60
15900;DHT22;8048;50.644;6.184;2024-03-22T14:50:46;17.90;60.00
15900;DHT22;8048;50.644;6.184;2024-03-22T14:53:12;17.90;59.00
15900;DHT22;8048;50.644;6.184;2024-03-22T14:55:37;17.70;59.00
15900;DHT22;8048;50.644;6.184;2024-03-22T14:58:05;17.70;63.90
15900;DHT22;8048;50.644;6.184;2024-03-22T15:00:31;17.70;60.30
15900;DHT22;8048;50.644;6.184;2024-03-22T15:02:57;18.00;60.40
15900;DHT22;8048;50.644;6.184;2024-03-22T15:05:22;18.10;61.50
15900;DHT22;8048;50.644;6.184;2024-03-22T15:07:48;18.30;67.70
15900;DHT22;8048;50.644;6.184;2024-03-22T15:10:13;18.40;59.50
15900;DHT22;8048;50.644;6.184;2024-03-22T15:12:39;18.30;58.90
15900;DHT22;8048;50.644;6.184;2024-03-22T15:15:05;18.30;60.50
15900;DHT22;8048;50.644;6.184;2024-03-22T15:17:31;18.40;58.90
15900;DHT22;8048;50.644;6.184;2024-03-22T15:19:56;18.40;58.10
15900;DHT22;8048;50.644;6.184;2024-03-22T15:22:22;18.60;59.60
15900;DHT22;8048;50.644;6.184;2024-03-22T15:24:48;18.60;61.90
15900;DHT22;8048;50.644;6.184;2024-03-22T15:27:14;18.90;59.90
15900;DHT22;8048;50.644;6.184;2024-03-22T15:29:40;19.10;59.60
15900;DHT22;8048;50.644;6.184;2024-03-22T15:32:06;19.20;55.30
15900;DHT22;8048;50.644;6.184;2024-03-22T15:34:32;18.90;54.90
15900;DHT22;8048;50.644;6.184;2024-03-22T15:36:58;18.90;54.80
15900;DHT22;8048;50.644;6.184;2024-03-22T15:39:24;19.10;58.60